Time;durP1;ratioP1;P1;durP2;ratioP2;P2;SDS_P1;SDS_P2;PMS_P1;PMS_P2;Temp;Humidity;BMP_temperature;BMP_pressure;BME280_temperature;BME280_humidity;BME280_pressure;Samples;Min_cycle;Max_cycle;Signal;HPM_P1;HPM_P2
2022/09/14 00:00:51;;;;;;;8.38;1.80;;;;;;;;;;5072335;28;20028;-76
2022/09/14 00:03:18;;;;;;;8.57;1.92;;;;;;;;;;5071838;28;20578;-76
2022/09/14 00:05:44;;;;;;;7.63;1.83;;;;;;;;;;5070368;28;20060;-77
2022/09/14 00:08:10;;;;;;;8.93;2.10;;;;;;;;;;5072074;28;20074;-77
2022/09/14 00:10:40;;;;;;;15.15;2.67;;;;;;;;;;5071504;28;20071;-77
2022/09/14 00:13:06;;;;;;;6.72;1.50;;;;;;;;;;5057286;28;20021;-77
2022/09/14 00:15:34;;;;;;;6.88;1.90;;;;;;;;;;5072360;28;20441;-76
2022/09/14 00:18:00;;;;;;;10.10;2.03;;;;;;;;;;5070546;28;20020;-77
2022/09/14 00:20:26;;;;;;;9.73;1.92;;;;;;;;;;5071219;28;20544;-76
2022/09/14 00:22:52;;;;;;;6.85;1.42;;;;;;;;;;5071664;28;20067;-77
2022/09/14 00:25:18;;;;;;;4.82;1.38;;;;;;;;;;5071511;28;20471;-77
2022/09/14 00:27:44;;;;;;;9.82;2.08;;;;;;;;;;5071573;28;20020;-77
2022/09/14 00:30:11;;;;;;;7.28;1.45;;;;;;;;;;5071116;28;20110;-77
2022/09/14 00:32:37;;;;;;;3.63;0.93;;;;;;;;;;5070302;28;20021;-77
2022/09/14 00:35:03;;;;;;;10.98;1.92;;;;;;;;;;5070527;28;20179;-78
2022/09/14 00:37:29;;;;;;;8.32;1.90;;;;;;;;;;5071540;28;20023;-77
2022/09/14 00:39:56;;;;;;;5.68;1.58;;;;;;;;;;5071071;28;20020;-77
2022/09/14 00:42:22;;;;;;;5.85;1.33;;;;;;;;;;5070874;28;20012;-77
2022/09/14 00:44:48;;;;;;;4.50;1.48;;;;;;;;;;5071457;28;20070;-77
2022/09/14 00:47:15;;;;;;;6.28;1.73;;;;;;;;;;5069604;28;20024;-77
2022/09/14 00:49:42;;;;;;;7.18;1.45;;;;;;;;;;5059575;28;20429;-77
2022/09/14 00:52:11;;;;;;;9.13;1.70;;;;;;;;;;5071140;28;20017;-78
2022/09/14 00:54:38;;;;;;;4.78;1.40;;;;;;;;;;5071231;28;20078;-77
2022/09/14 00:57:04;;;;;;;10.52;2.15;;;;;;;;;;5069760;28;20372;-77
2022/09/14 00:59:33;;;;;;;7.32;1.67;;;;;;;;;;5053905;28;20020;-76
2022/09/14 01:01:59;;;;;;;8.32;1.98;;;;;;;;;;5072036;28;20030;-77
2022/09/14 01:04:25;;;;;;;7.45;1.88;;;;;;;;;;5070631;28;20036;-77
2022/09/14 01:06:51;;;;;;;7.35;1.50;;;;;;;;;;5071818;28;20395;-77
2022/09/14 01:09:24;;;;;;;8.40;2.17;;;;;;;;;;5070841;28;20032;-77
2022/09/14 01:12:01;;;;;;;8.80;1.33;;;;;;;;;;5050509;28;20025;-77
2022/09/14 01:14:27;;;;;;;7.68;1.95;;;;;;;;;;5066894;28;20036;-77
2022/09/14 01:16:59;;;;;;;10.73;1.90;;;;;;;;;;5070640;28;20411;-77
2022/09/14 01:19:34;;;;;;;7.20;1.75;;;;;;;;;;5070217;28;20029;-77
2022/09/14 01:22:06;;;;;;;8.38;1.73;;;;;;;;;;5070610;28;20124;-77
2022/09/14 01:24:46;;;;;;;8.27;1.42;;;;;;;;;;5069912;28;20020;-77
2022/09/14 01:27:25;;;;;;;7.57;1.70;;;;;;;;;;5070275;28;20028;-77
2022/09/14 01:29:57;;;;;;;8.25;2.42;;;;;;;;;;5070258;28;20368;-76
2022/09/14 01:32:32;;;;;;;8.98;2.00;;;;;;;;;;5070116;28;20105;-77
2022/09/14 01:34:59;;;;;;;3.85;1.13;;;;;;;;;;5068561;28;20043;-77
2022/09/14 01:37:28;;;;;;;7.03;1.35;;;;;;;;;;5069904;28;20061;-77
2022/09/14 01:40:17;;;;;;;7.25;1.58;;;;;;;;;;5070001;28;20033;-77
2022/09/14 01:42:48;;;;;;;8.27;1.77;;;;;;;;;;5069299;28;20041;-77
2022/09/14 01:45:15;;;;;;;9.25;1.95;;;;;;;;;;5068298;28;20024;-77
2022/09/14 01:47:55;;;;;;;7.43;1.35;;;;;;;;;;5067917;28;20020;-77
2022/09/14 01:50:24;;;;;;;4.93;1.20;;;;;;;;;;5067831;28;20076;-77
2022/09/14 01:52:52;;;;;;;8.35;1.33;;;;;;;;;;5069759;28;20048;-77
2022/09/14 01:55:30;;;;;;;7.43;1.58;;;;;;;;;;5069692;28;20090;-77
2022/09/14 01:58:09;;;;;;;6.75;1.40;;;;;;;;;;5069229;28;20032;-77
2022/09/14 02:00:37;;;;;;;7.45;1.40;;;;;;;;;;5069934;28;20028;-77
2022/09/14 02:03:10;;;;;;;7.65;0.90;;;;;;;;;;5070044;28;20036;-77
2022/09/14 02:05:53;;;;;;;4.72;1.10;;;;;;;;;;5069253;28;20016;-77
2022/09/14 02:08:19;;;;;;;5.78;1.13;;;;;;;;;;5069400;28;20029;-77
2022/09/14 02:10:46;;;;;;;5.00;1.20;;;;;;;;;;5069071;28;20020;-77
2022/09/14 02:13:12;;;;;;;4.80;1.00;;;;;;;;;;5069344;28;20052;-77
2022/09/14 02:15:39;;;;;;;6.20;1.10;;;;;;;;;;5067847;28;20037;-77
2022/09/14 02:18:06;;;;;;;4.00;1.30;;;;;;;;;;5067584;28;20078;-77
2022/09/14 02:20:35;;;;;;;5.43;1.10;;;;;;;;;;5068033;28;20110;-77
2022/09/14 02:23:01;;;;;;;5.53;1.20;;;;;;;;;;5067530;28;20113;-77
2022/09/14 02:25:27;;;;;;;3.78;1.00;;;;;;;;;;5069028;28;20475;-78
2022/09/14 02:27:53;;;;;;;6.05;1.42;;;;;;;;;;5069072;28;20096;-77
2022/09/14 02:30:19;;;;;;;2.90;0.70;;;;;;;;;;5068814;28;20123;-77
2022/09/14 02:32:55;;;;;;;4.05;0.80;;;;;;;;;;5069519;28;20410;-77
2022/09/14 02:35:53;;;;;;;3.05;0.80;;;;;;;;;;5068739;28;20031;-78
2022/09/14 02:38:26;;;;;;;5.28;1.08;;;;;;;;;;5067443;28;20051;-77
2022/09/14 02:40:58;;;;;;;5.93;1.42;;;;;;;;;;5068998;28;20017;-77
2022/09/14 02:43:32;;;;;;;6.45;1.23;;;;;;;;;;5068734;28;20043;-77
2022/09/14 02:46:17;;;;;;;7.70;1.10;;;;;;;;;;5069034;28;20039;-77
2022/09/14 02:49:01;;;;;;;5.93;1.13;;;;;;;;;;5057018;28;20085;-77
2022/09/14 02:51:27;;;;;;;3.95;0.95;;;;;;;;;;5068640;28;20059;-77
2022/09/14 02:54:00;;;;;;;6.10;1.92;;;;;;;;;;5069099;28;20020;-77
2022/09/14 02:56:28;;;;;;;5.78;1.13;;;;;;;;;;5067038;28;20021;-77
2022/09/14 02:58:55;;;;;;;8.02;1.52;;;;;;;;;;5069065;28;20025;-77
2022/09/14 03:01:22;;;;;;;6.75;1.20;;;;;;;;;;5068421;28;20523;-77
2022/09/14 03:03:51;;;;;;;4.47;0.93;;;;;;;;;;5068429;28;20066;-77
2022/09/14 03:06:17;;;;;;;4.82;1.33;;;;;;;;;;5067222;28;20077;-77
2022/09/14 03:08:52;;;;;;;7.95;1.33;;;;;;;;;;5068789;28;20028;-77
2022/09/14 03:11:18;;;;;;;6.47;1.77;;;;;;;;;;5071607;28;20040;-77
2022/09/14 03:13:44;;;;;;;4.57;1.63;;;;;;;;;;5072328;28;20511;-76
2022/09/14 03:16:13;;;;;;;10.07;1.70;;;;;;;;;;5071823;28;20024;-77
2022/09/14 03:18:39;;;;;;;5.50;1.10;;;;;;;;;;5072458;28;20032;-77
2022/09/14 03:21:06;;;;;;;6.45;1.35;;;;;;;;;;5071431;28;20139;-77
2022/09/14 03:23:36;;;;;;;4.00;1.20;;;;;;;;;;5072898;28;20028;-77
2022/09/14 03:26:06;;;;;;;3.97;1.00;;;;;;;;;;5072586;28;20025;-77
2022/09/14 03:28:32;;;;;;;3.53;1.20;;;;;;;;;;5071356;28;20561;-77
2022/09/14 03:31:02;;;;;;;3.85;1.10;;;;;;;;;;5072444;28;20036;-76
2022/09/14 03:33:28;;;;;;;;;;;;;;;;;;5072863;28;20069;-77
2022/09/14 03:35:54;;;;;;;4.30;1.02;;;;;;;;;;5072495;28;20312;-77
2022/09/14 03:38:20;;;;;;;7.07;1.20;;;;;;;;;;5070734;28;20032;-77
2022/09/14 03:40:47;;;;;;;3.50;1.08;;;;;;;;;;5072398;28;20395;-77
2022/09/14 03:43:13;;;;;;;5.63;1.10;;;;;;;;;;5072475;28;20052;-77
2022/09/14 03:45:40;;;;;;;6.38;1.40;;;;;;;;;;5072380;28;20035;-77
2022/09/14 03:48:06;;;;;;;9.07;1.48;;;;;;;;;;5071377;28;20020;-77
2022/09/14 03:50:32;;;;;;;6.32;1.33;;;;;;;;;;5065341;28;20071;-77
2022/09/14 03:52:58;;;;;;;5.30;1.08;;;;;;;;;;5053586;28;20029;-77
2022/09/14 03:55:25;;;;;;;4.88;1.10;;;;;;;;;;5072153;28;20100;-77
2022/09/14 03:57:54;;;;;;;6.70;1.00;;;;;;;;;;5069992;28;20201;-77
2022/09/14 04:00:21;;;;;;;6.80;1.40;;;;;;;;;;5070908;28;20032;-77
2022/09/14 04:02:47;;;;;;;6.32;1.02;;;;;;;;;;5061971;28;20036;-77
2022/09/14 04:05:13;;;;;;;4.68;0.93;;;;;;;;;;5068393;28;20025;-76
2022/09/14 04:07:39;;;;;;;6.03;1.15;;;;;;;;;;5070332;28;20363;-76
2022/09/14 04:10:06;;;;;;;7.47;2.03;;;;;;;;;;5071271;28;20417;-77
2022/09/14 04:12:38;;;;;;;6.40;1.05;;;;;;;;;;5070478;28;20024;-77
2022/09/14 04:15:05;;;;;;;4.60;1.00;;;;;;;;;;5070963;28;20494;-77
2022/09/14 04:17:31;;;;;;;5.53;0.98;;;;;;;;;;5072038;28;20016;-76
2022/09/14 04:19:57;;;;;;;5.43;1.00;;;;;;;;;;5071818;28;20400;-77
2022/09/14 04:22:24;;;;;;;4.78;0.93;;;;;;;;;;5071238;28;20084;-78
2022/09/14 04:24:50;;;;;;;4.20;1.02;;;;;;;;;;5071966;28;20432;-77
2022/09/14 04:27:16;;;;;;;5.18;0.88;;;;;;;;;;5074092;28;20031;-77
2022/09/14 04:29:42;;;;;;;6.15;1.13;;;;;;;;;;5072633;28;20036;-77
2022/09/14 04:32:09;;;;;;;5.60;1.08;;;;;;;;;;5076516;28;20024;-76
2022/09/14 04:34:35;;;;;;;5.05;1.20;;;;;;;;;;5072554;28;21240;-76
2022/09/14 04:37:01;;;;;;;6.53;1.05;;;;;;;;;;5071545;28;20028;-76
2022/09/14 04:39:27;;;;;;;4.47;0.80;;;;;;;;;;5070767;28;20060;-78
2022/09/14 04:41:53;;;;;;;7.25;1.23;;;;;;;;;;5071339;28;20505;-77
2022/09/14 04:44:19;;;;;;;5.80;1.00;;;;;;;;;;5071032;28;20131;-78
2022/09/14 04:46:45;;;;;;;4.13;1.08;;;;;;;;;;5071071;28;20111;-78
2022/09/14 04:49:11;;;;;;;7.57;1.10;;;;;;;;;;5071624;28;20025;-77
2022/09/14 04:51:37;;;;;;;3.42;0.93;;;;;;;;;;5071560;28;20032;-80
2022/09/14 04:54:04;;;;;;;6.25;1.23;;;;;;;;;;5070396;28;20516;-78
2022/09/14 04:56:33;;;;;;;4.20;0.90;;;;;;;;;;5070746;28;20028;-78
2022/09/14 04:59:03;;;;;;;7.28;1.75;;;;;;;;;;5071175;28;20030;-78
2022/09/14 05:01:29;;;;;;;;;;;;;;;;;;5071272;28;20020;-78
2022/09/14 05:03:55;;;;;;;3.83;1.40;;;;;;;;;;5070513;28;19915;-78
2022/09/14 05:06:23;;;;;;;7.55;1.13;;;;;;;;;;5070404;28;20044;-77
2022/09/14 05:08:49;;;;;;;6.10;1.02;;;;;;;;;;5070545;28;20086;-77
2022/09/14 05:11:17;;;;;;;6.13;1.23;;;;;;;;;;5070693;28;20017;-79
2022/09/14 05:13:44;;;;;;;4.32;1.15;;;;;;;;;;5070495;28;20025;-78
2022/09/14 05:16:14;;;;;;;5.38;0.90;;;;;;;;;;5069938;28;20575;-79
2022/09/14 05:18:40;;;;;;;4.43;0.90;;;;;;;;;;5070255;28;20028;-79
2022/09/14 05:21:07;;;;;;;5.07;1.35;;;;;;;;;;5070490;28;20079;-79
2022/09/14 05:23:33;;;;;;;8.57;1.10;;;;;;;;;;5070836;28;20501;-77
2022/09/14 05:25:59;;;;;;;5.68;0.90;;;;;;;;;;5069618;28;20060;-77
2022/09/14 05:28:27;;;;;;;6.03;0.90;;;;;;;;;;5071286;28;20021;-77
2022/09/14 05:30:53;;;;;;;5.78;1.60;;;;;;;;;;5072894;28;20067;-77
2022/09/14 05:33:20;;;;;;;5.30;0.82;;;;;;;;;;5069489;28;20491;-78
2022/09/14 05:35:47;;;;;;;3.17;0.73;;;;;;;;;;5070629;28;20519;-78
2022/09/14 05:38:13;;;;;;;7.00;1.30;;;;;;;;;;5069600;28;20091;-78
2022/09/14 05:40:39;;;;;;;4.57;1.08;;;;;;;;;;5069023;28;20362;-77
2022/09/14 05:43:05;;;;;;;3.78;0.80;;;;;;;;;;5070422;28;20031;-79
2022/09/14 05:45:32;;;;;;;3.88;0.93;;;;;;;;;;5071092;28;20026;-78
2022/09/14 05:48:03;;;;;;;7.60;0.90;;;;;;;;;;5071227;28;20517;-78
2022/09/14 05:50:29;;;;;;;2.33;1.02;;;;;;;;;;5070563;28;20062;-79
2022/09/14 05:52:55;;;;;;;2.85;0.80;;;;;;;;;;5069796;28;20032;-78
2022/09/14 05:55:21;;;;;;;3.95;0.80;;;;;;;;;;5070229;28;20509;-77
2022/09/14 05:57:48;;;;;;;4.93;1.05;;;;;;;;;;5067849;28;20024;-78
2022/09/14 06:00:15;;;;;;;6.75;1.27;;;;;;;;;;5069696;28;20020;-78
2022/09/14 06:02:45;;;;;;;3.25;0.70;;;;;;;;;;5068238;28;20028;-77
2022/09/14 06:05:11;;;;;;;;;;;;;;;;;;5069995;28;20043;-77
2022/09/14 06:07:37;;;;;;;3.00;0.90;;;;;;;;;;5057612;28;19909;-77
2022/09/14 06:10:04;;;;;;;2.63;0.85;;;;;;;;;;5068821;28;20847;-77
2022/09/14 06:12:30;;;;;;;1.95;0.80;;;;;;;;;;5069997;28;20383;-77
2022/09/14 06:14:56;;;;;;;1.75;0.60;;;;;;;;;;5069366;28;20024;-77
2022/09/14 06:17:22;;;;;;;2.15;0.70;;;;;;;;;;5067847;28;20593;-78
2022/09/14 06:19:48;;;;;;;1.90;0.50;;;;;;;;;;5069661;28;20024;-78
2022/09/14 06:22:14;;;;;;;1.55;0.50;;;;;;;;;;5069984;28;20044;-79
2022/09/14 06:24:40;;;;;;;1.77;0.73;;;;;;;;;;5062698;28;20385;-78
2022/09/14 06:27:09;;;;;;;0.90;0.40;;;;;;;;;;5069502;28;20032;-78
2022/09/14 06:29:35;;;;;;;1.00;0.50;;;;;;;;;;5069064;28;20395;-77
2022/09/14 06:32:01;;;;;;;0.85;0.30;;;;;;;;;;5069434;28;20029;-78
2022/09/14 06:34:27;;;;;;;0.82;0.40;;;;;;;;;;5068824;28;20017;-78
2022/09/14 06:36:53;;;;;;;0.40;0.40;;;;;;;;;;5069249;28;20384;-78
2022/09/14 06:39:19;;;;;;;0.82;0.52;;;;;;;;;;5065801;28;20497;-78
2022/09/14 06:41:45;;;;;;;2.17;0.70;;;;;;;;;;5069377;28;20043;-78
2022/09/14 06:44:14;;;;;;;1.50;0.50;;;;;;;;;;5069656;28;20487;-77
2022/09/14 06:46:40;;;;;;;1.33;0.40;;;;;;;;;;5065853;28;20032;-78
2022/09/14 06:49:10;;;;;;;1.05;0.35;;;;;;;;;;5059082;28;20025;-77
2022/09/14 06:51:38;;;;;;;1.20;0.40;;;;;;;;;;5069147;28;20029;-78
2022/09/14 06:54:04;;;;;;;0.77;0.40;;;;;;;;;;5062897;28;20661;-77
2022/09/14 06:56:31;;;;;;;2.40;0.50;;;;;;;;;;5065753;28;20700;-77
2022/09/14 06:58:58;;;;;;;1.27;0.40;;;;;;;;;;5050207;28;20124;-77
2022/09/14 07:01:25;;;;;;;2.15;0.60;;;;;;;;;;5067670;28;20107;-79
2022/09/14 07:03:51;;;;;;;1.23;0.40;;;;;;;;;;5062756;28;20159;-78
2022/09/14 07:06:22;;;;;;;1.60;0.50;;;;;;;;;;5063116;28;20044;-79
2022/09/14 07:08:48;;;;;;;4.05;0.80;;;;;;;;;;5069214;28;20044;-77
2022/09/14 07:11:16;;;;;;;2.35;0.50;;;;;;;;;;5068184;28;20051;-77
2022/09/14 07:13:42;;;;;;;1.38;0.40;;;;;;;;;;5068645;28;20115;-77
2022/09/14 07:16:08;;;;;;;2.05;0.63;;;;;;;;;;5069004;28;20032;-77
2022/09/14 07:18:35;;;;;;;2.17;0.50;;;;;;;;;;5069234;28;20021;-77
2022/09/14 07:21:05;;;;;;;1.92;0.47;;;;;;;;;;5067930;28;20048;-78
2022/09/14 07:23:31;;;;;;;2.10;0.68;;;;;;;;;;5060458;28;20396;-78
2022/09/14 07:26:08;;;;;;;0.95;0.40;;;;;;;;;;5062505;28;20021;-78
2022/09/14 07:28:34;;;;;;;2.83;0.45;;;;;;;;;;5056806;28;20033;-77
2022/09/14 07:31:01;;;;;;;3.50;0.55;;;;;;;;;;5065331;28;20483;-78
2022/09/14 07:33:27;;;;;;;3.72;0.98;;;;;;;;;;5067518;28;20017;-79
2022/09/14 07:35:53;;;;;;;2.85;0.77;;;;;;;;;;5067590;28;20025;-79
2022/09/14 07:38:20;;;;;;;3.97;0.80;;;;;;;;;;5067610;28;20078;-79
2022/09/14 07:40:46;;;;;;;3.03;0.85;;;;;;;;;;5066330;28;20479;-79
2022/09/14 07:43:12;;;;;;;2.53;0.60;;;;;;;;;;5067147;28;20688;-79
2022/09/14 07:45:38;;;;;;;3.15;0.88;;;;;;;;;;5068863;28;20056;-77
2022/09/14 07:48:05;;;;;;;2.80;0.77;;;;;;;;;;5067450;28;20020;-78
2022/09/14 07:50:31;;;;;;;4.20;0.82;;;;;;;;;;5063671;28;20032;-78
2022/09/14 07:52:57;;;;;;;3.85;1.23;;;;;;;;;;5065394;28;20036;-79
2022/09/14 07:55:23;;;;;;;3.30;0.80;;;;;;;;;;5065173;28;20037;-78
2022/09/14 07:57:49;;;;;;;5.78;0.90;;;;;;;;;;5067113;28;20082;-79
2022/09/14 08:00:15;;;;;;;4.45;1.08;;;;;;;;;;5071962;28;20082;-78
2022/09/14 08:02:42;;;;;;;5.63;1.35;;;;;;;;;;5071611;28;20024;-78
2022/09/14 08:05:08;;;;;;;7.22;1.20;;;;;;;;;;5071365;28;20394;-78
2022/09/14 08:07:34;;;;;;;6.18;1.63;;;;;;;;;;5070414;28;20016;-78
2022/09/14 08:10:01;;;;;;;4.63;1.10;;;;;;;;;;5070441;28;20037;-78
2022/09/14 08:12:26;;;;;;;8.13;1.25;;;;;;;;;;5070095;28;20043;-78
2022/09/14 08:14:52;;;;;;;3.78;0.93;;;;;;;;;;5071173;28;20025;-79
2022/09/14 08:17:21;;;;;;;5.78;1.30;;;;;;;;;;5071939;28;20506;-79
2022/09/14 08:19:47;;;;;;;4.50;1.10;;;;;;;;;;5070662;28;20035;-79
2022/09/14 08:22:13;;;;;;;4.20;1.05;;;;;;;;;;5072733;28;20032;-79
2022/09/14 08:24:39;;;;;;;4.65;0.90;;;;;;;;;;5072180;28;20565;-78
2022/09/14 08:27:05;;;;;;;3.35;1.20;;;;;;;;;;5069951;28;20028;-79
2022/09/14 08:29:31;;;;;;;5.57;0.90;;;;;;;;;;5071475;28;20037;-79
2022/09/14 08:31:58;;;;;;;4.95;1.00;;;;;;;;;;5070808;28;20016;-79
2022/09/14 08:34:24;;;;;;;7.70;1.00;;;;;;;;;;5071884;28;20079;-79
2022/09/14 08:36:50;;;;;;;4.43;1.02;;;;;;;;;;5071166;28;20017;-79
2022/09/14 08:39:17;;;;;;;3.90;0.90;;;;;;;;;;5072452;28;20051;-78
2022/09/14 08:41:44;;;;;;;4.72;1.02;;;;;;;;;;5073160;28;20021;-79
2022/09/14 08:44:13;;;;;;;6.10;1.05;;;;;;;;;;5072417;28;20091;-79
2022/09/14 08:46:45;;;;;;;3.33;1.25;;;;;;;;;;5073037;28;20082;-80
2022/09/14 08:49:21;;;;;;;4.60;1.08;;;;;;;;;;5072550;28;20036;-78
2022/09/14 08:51:47;;;;;;;4.88;1.02;;;;;;;;;;5072510;28;20033;-79
2022/09/14 08:54:13;;;;;;;5.18;1.17;;;;;;;;;;5072698;28;20028;-79
2022/09/14 08:56:41;;;;;;;4.13;0.85;;;;;;;;;;5073360;28;20024;-80
2022/09/14 08:59:21;;;;;;;2.20;0.60;;;;;;;;;;5072990;28;20020;-78
2022/09/14 09:02:05;;;;;;;9.20;1.20;;;;;;;;;;5072053;28;20021;-79
2022/09/14 09:04:58;;;;;;;3.47;1.25;;;;;;;;;;5071588;28;20023;-79
2022/09/14 09:07:30;;;;;;;5.28;1.17;;;;;;;;;;5070674;28;20491;-78
2022/09/14 09:09:57;;;;;;;4.88;0.90;;;;;;;;;;5071096;28;20041;-78
2022/09/14 09:12:28;;;;;;;3.63;0.60;;;;;;;;;;5071172;28;20032;-78
2022/09/14 09:14:56;;;;;;;6.40;1.10;;;;;;;;;;5070557;28;20083;-79
2022/09/14 09:17:30;;;;;;;5.38;0.98;;;;;;;;;;5069332;28;20396;-79
2022/09/14 09:20:11;;;;;;;3.47;0.82;;;;;;;;;;5070600;28;20029;-79
2022/09/14 09:22:42;;;;;;;3.65;0.90;;;;;;;;;;5071123;28;20048;-79
2022/09/14 09:25:26;;;;;;;4.55;1.20;;;;;;;;;;5070595;28;20056;-78
2022/09/14 09:27:57;;;;;;;3.50;0.93;;;;;;;;;;5070908;28;20051;-78
2022/09/14 09:30:23;;;;;;;3.00;0.73;;;;;;;;;;5070078;28;20091;-79
2022/09/14 09:32:52;;;;;;;2.67;0.73;;;;;;;;;;5069473;28;20021;-79
2022/09/14 09:35:21;;;;;;;5.93;0.90;;;;;;;;;;5071458;28;20159;-77
2022/09/14 09:37:47;;;;;;;4.95;0.95;;;;;;;;;;5069707;28;20024;-77
2022/09/14 09:40:14;;;;;;;5.70;0.82;;;;;;;;;;5070445;28;20052;-79
2022/09/14 09:43:00;;;;;;;5.28;1.08;;;;;;;;;;5069020;28;20487;-79
2022/09/14 09:45:45;;;;;;;2.95;0.70;;;;;;;;;;5069892;28;20025;-79
2022/09/14 09:48:14;;;;;;;6.88;1.35;;;;;;;;;;5068682;28;20106;-79
2022/09/14 09:50:47;;;;;;;6.10;1.20;;;;;;;;;;5067799;28;20036;-79
2022/09/14 09:53:16;;;;;;;7.40;1.38;;;;;;;;;;5068518;28;20035;-79
2022/09/14 09:55:46;;;;;;;4.22;0.85;;;;;;;;;;5069677;28;20017;-80
2022/09/14 09:58:23;;;;;;;3.05;0.82;;;;;;;;;;5068512;28;20032;-79
2022/09/14 10:01:09;;;;;;;4.00;0.88;;;;;;;;;;5069254;28;20020;-80
2022/09/14 10:03:36;;;;;;;2.90;0.90;;;;;;;;;;5069399;28;20031;-79
2022/09/14 10:06:04;;;;;;;5.80;1.15;;;;;;;;;;5068098;28;20654;-79
2022/09/14 10:08:34;;;;;;;7.10;1.38;;;;;;;;;;5069574;28;20043;-79
2022/09/14 10:11:01;;;;;;;2.20;0.50;;;;;;;;;;5069297;28;20119;-80
2022/09/14 10:13:37;;;;;;;1.75;0.60;;;;;;;;;;5069470;28;20028;-78
2022/09/14 10:16:07;;;;;;;1.42;0.50;;;;;;;;;;5068214;28;20021;-79
2022/09/14 10:18:34;;;;;;;2.55;0.88;;;;;;;;;;5067749;28;20028;-79
2022/09/14 10:21:04;;;;;;;2.58;0.80;;;;;;;;;;5067439;28;20052;-79
2022/09/14 10:23:30;;;;;;;;;;;;;;;;;;5061962;28;20027;-79
2022/09/14 10:26:11;;;;;;;4.97;0.65;;;;;;;;;;5069510;28;19905;-81
2022/09/14 10:28:38;;;;;;;5.30;1.42;;;;;;;;;;5069527;28;20025;-79
2022/09/14 10:31:19;;;;;;;3.53;0.70;;;;;;;;;;5069058;28;20033;-79
2022/09/14 10:33:50;;;;;;;3.03;0.50;;;;;;;;;;5050845;28;20016;-79
2022/09/14 10:36:19;;;;;;;3.72;1.05;;;;;;;;;;5053791;28;20031;-79
2022/09/14 10:38:51;;;;;;;4.88;0.93;;;;;;;;;;5064254;28;20029;-79
2022/09/14 10:41:25;;;;;;;3.75;1.08;;;;;;;;;;5070079;28;20020;-79
2022/09/14 10:43:59;;;;;;;2.28;0.73;;;;;;;;;;5068729;28;20051;-79
2022/09/14 10:46:29;;;;;;;4.53;0.80;;;;;;;;;;5067806;28;20025;-79
2022/09/14 10:49:11;;;;;;;2.10;0.60;;;;;;;;;;5069747;28;20055;-79
2022/09/14 10:51:43;;;;;;;7.25;1.48;;;;;;;;;;5069916;28;20032;-79
2022/09/14 10:54:18;;;;;;;7.20;1.60;;;;;;;;;;5070564;28;20099;-79
2022/09/14 10:56:50;;;;;;;5.57;2.33;;;;;;;;;;5065873;28;20049;-79
2022/09/14 10:59:19;;;;;;;3.85;1.02;;;;;;;;;;5068252;28;20031;-79
2022/09/14 11:02:04;;;;;;;7.75;1.75;;;;;;;;;;5059771;28;20074;-79
2022/09/14 11:04:30;;;;;;;4.95;1.40;;;;;;;;;;5066787;28;20368;-80
2022/09/14 11:07:03;;;;;;;3.17;0.90;;;;;;;;;;5068164;28;20471;-79
2022/09/14 11:09:37;;;;;;;3.45;1.20;;;;;;;;;;5069188;28;20093;-80
2022/09/14 11:12:05;;;;;;;3.65;0.80;;;;;;;;;;5069423;28;20024;-82
2022/09/14 11:15:02;;;;;;;1.90;0.73;;;;;;;;;;5067921;28;20024;-82
2022/09/14 11:17:28;;;;;;;2.92;0.60;;;;;;;;;;5063228;28;20110;-80
2022/09/14 11:20:04;;;;;;;5.85;1.15;;;;;;;;;;5066908;28;20483;-81
2022/09/14 11:22:36;;;;;;;3.30;1.10;;;;;;;;;;5069849;28;20049;-80
2022/09/14 11:25:10;;;;;;;2.72;0.88;;;;;;;;;;5068205;28;20032;-80
2022/09/14 11:27:36;;;;;;;4.05;1.35;;;;;;;;;;5070824;28;20017;-81
2022/09/14 11:30:15;;;;;;;4.38;1.88;;;;;;;;;;5070929;28;20082;-81
2022/09/14 11:32:46;;;;;;;4.50;0.80;;;;;;;;;;5074227;28;20028;-81
2022/09/14 11:35:14;;;;;;;4.15;0.80;;;;;;;;;;5074449;28;20016;-80
2022/09/14 11:37:46;;;;;;;7.22;1.05;;;;;;;;;;5073780;28;20025;-81
2022/09/14 11:40:36;;;;;;;4.90;1.42;;;;;;;;;;5071935;28;20040;-81
2022/09/14 11:43:05;;;;;;;7.13;1.88;;;;;;;;;;5068949;28;20127;-81
2022/09/14 11:45:34;;;;;;;6.03;1.73;;;;;;;;;;5071393;28;20036;-80
2022/09/14 11:48:13;;;;;;;6.88;1.80;;;;;;;;;;5074023;28;20033;-80
2022/09/14 11:50:42;;;;;;;5.05;1.40;;;;;;;;;;5073441;28;20032;-80
2022/09/14 11:53:12;;;;;;;4.63;1.30;;;;;;;;;;5071981;28;20364;-80
2022/09/14 11:55:42;;;;;;;3.83;1.70;;;;;;;;;;5076180;28;20450;-80
2022/09/14 11:58:16;;;;;;;7.88;2.08;;;;;;;;;;5074035;28;20166;-80
2022/09/14 12:00:44;;;;;;;5.05;2.00;;;;;;;;;;5074309;28;20024;-80
2022/09/14 12:03:21;;;;;;;7.55;1.70;;;;;;;;;;5070931;28;20029;-81
2022/09/14 12:05:48;;;;;;;8.40;2.25;;;;;;;;;;5064540;28;20111;-79
2022/09/14 12:08:23;;;;;;;5.30;1.90;;;;;;;;;;5071548;28;20090;-77
2022/09/14 12:11:03;;;;;;;9.88;2.47;;;;;;;;;;5072549;28;20071;-78
2022/09/14 12:13:30;;;;;;;6.47;2.20;;;;;;;;;;5073231;28;20107;-78
2022/09/14 12:16:08;;;;;;;4.07;1.30;;;;;;;;;;5073748;28;20017;-78
2022/09/14 12:18:38;;;;;;;2.25;0.80;;;;;;;;;;5073046;28;20482;-80
2022/09/14 12:21:23;;;;;;;5.20;0.85;;;;;;;;;;5073198;28;20084;-77
2022/09/14 12:23:51;;;;;;;4.95;1.10;;;;;;;;;;5076863;28;20033;-78
2022/09/14 12:26:18;;;;;;;6.38;1.45;;;;;;;;;;5074792;28;20094;-78
2022/09/14 12:28:49;;;;;;;5.47;1.35;;;;;;;;;;5074391;28;20107;-78
2022/09/14 12:31:34;;;;;;;5.20;1.33;;;;;;;;;;5073450;28;20052;-77
2022/09/14 12:34:04;;;;;;;5.78;1.10;;;;;;;;;;5072351;28;20051;-78
2022/09/14 12:36:37;;;;;;;6.47;1.35;;;;;;;;;;5061960;28;20390;-79
2022/09/14 12:39:22;;;;;;;3.40;0.93;;;;;;;;;;5072417;28;20040;-78
2022/09/14 12:41:48;;;;;;;9.18;1.65;;;;;;;;;;5066917;28;20040;-79
2022/09/14 12:44:32;;;;;;;5.85;1.33;;;;;;;;;;5068305;28;20032;-78
2022/09/14 12:47:18;;;;;;;6.55;1.75;;;;;;;;;;5057986;28;20061;-78
2022/09/14 12:49:45;;;;;;;7.93;2.03;;;;;;;;;;5068904;28;20498;-78
2022/09/14 12:52:18;;;;;;;3.60;1.50;;;;;;;;;;5071314;28;20028;-79
2022/09/14 12:54:50;;;;;;;3.70;1.30;;;;;;;;;;5072257;28;20035;-79
2022/09/14 12:57:25;;;;;;;4.85;1.15;;;;;;;;;;5072247;28;20047;-80
2022/09/14 13:00:02;;;;;;;3.53;1.00;;;;;;;;;;5071451;28;20047;-81
2022/09/14 13:02:28;;;;;;;5.53;1.38;;;;;;;;;;5072107;28;20107;-79
2022/09/14 13:04:56;;;;;;;4.53;1.27;;;;;;;;;;5071480;28;20059;-79
2022/09/14 13:07:31;;;;;;;3.55;1.20;;;;;;;;;;5071261;28;20021;-80
2022/09/14 13:09:58;;;;;;;4.78;1.10;;;;;;;;;;5067759;28;20075;-79
2022/09/14 13:12:33;;;;;;;3.55;0.98;;;;;;;;;;5064329;28;20031;-79
2022/09/14 13:15:04;;;;;;;6.15;1.00;;;;;;;;;;5062490;28;20037;-80
2022/09/14 13:17:30;;;;;;;5.55;1.67;;;;;;;;;;5061553;28;20025;-80
2022/09/14 13:19:58;;;;;;;4.68;1.02;;;;;;;;;;5066188;28;20050;-80
2022/09/14 13:22:33;;;;;;;4.88;1.00;;;;;;;;;;5057243;28;20051;-81
2022/09/14 13:25:00;;;;;;;3.45;0.80;;;;;;;;;;5061315;28;20024;-81
2022/09/14 13:27:27;;;;;;;5.63;1.40;;;;;;;;;;5070403;28;20498;-80
2022/09/14 13:30:06;;;;;;;4.97;0.88;;;;;;;;;;5070189;28;20036;-80
2022/09/14 13:32:33;;;;;;;3.90;0.93;;;;;;;;;;5069202;28;20024;-80
2022/09/14 13:35:01;;;;;;;3.95;0.80;;;;;;;;;;5069481;28;20049;-80
2022/09/14 13:37:27;;;;;;;6.25;1.17;;;;;;;;;;5070358;28;20078;-80
2022/09/14 13:39:54;;;;;;;5.32;1.38;;;;;;;;;;5070614;28;20044;-80
2022/09/14 13:42:21;;;;;;;3.30;1.05;;;;;;;;;;5070177;28;20051;-81
2022/09/14 13:44:48;;;;;;;5.90;0.88;;;;;;;;;;5070832;28;20491;-81
2022/09/14 13:47:21;;;;;;;3.33;0.75;;;;;;;;;;5070736;28;20068;-79
2022/09/14 13:49:49;;;;;;;4.25;1.00;;;;;;;;;;5070450;28;20176;-78
2022/09/14 13:52:21;;;;;;;5.40;0.90;;;;;;;;;;5070745;28;20036;-78
2022/09/14 13:54:48;;;;;;;6.20;1.30;;;;;;;;;;5069167;28;20024;-78
2022/09/14 13:57:15;;;;;;;3.65;1.08;;;;;;;;;;5069612;28;20099;-79
2022/09/14 14:00:00;;;;;;;7.03;1.73;;;;;;;;;;5067577;28;20035;-78
2022/09/14 14:02:27;;;;;;;4.55;0.98;;;;;;;;;;5048418;28;20029;-77
2022/09/14 14:04:53;;;;;;;4.40;1.10;;;;;;;;;;5063782;28;20054;-77
2022/09/14 14:07:23;;;;;;;3.72;0.90;;;;;;;;;;5069196;28;20056;-78
2022/09/14 14:09:51;;;;;;;4.22;0.98;;;;;;;;;;5065838;28;20514;-77
2022/09/14 14:12:24;;;;;;;5.25;0.98;;;;;;;;;;5052321;28;20032;-78
2022/09/14 14:14:55;;;;;;;4.82;1.10;;;;;;;;;;5060799;28;20486;-79
2022/09/14 14:17:21;;;;;;;5.03;1.33;;;;;;;;;;5064374;28;20036;-78
2022/09/14 14:19:47;;;;;;;3.65;1.23;;;;;;;;;;5060396;28;20020;-78
2022/09/14 14:22:13;;;;;;;6.00;1.20;;;;;;;;;;5058129;28;20123;-78
2022/09/14 14:24:43;;;;;;;5.38;1.30;;;;;;;;;;5063870;28;20469;-78
2022/09/14 14:27:28;;;;;;;4.63;1.00;;;;;;;;;;5063415;28;20447;-79
2022/09/14 14:29:54;;;;;;;2.42;0.82;;;;;;;;;;5061136;28;20036;-77
2022/09/14 14:32:21;;;;;;;6.35;0.85;;;;;;;;;;5069974;28;20139;-76
2022/09/14 14:34:47;;;;;;;5.88;1.20;;;;;;;;;;5067799;28;20021;-76
2022/09/14 14:37:14;;;;;;;5.32;1.08;;;;;;;;;;5068028;28;20036;-75
2022/09/14 14:39:40;;;;;;;3.42;0.82;;;;;;;;;;5063542;28;20082;-76
2022/09/14 14:42:06;;;;;;;3.78;0.75;;;;;;;;;;5068478;28;20029;-76
2022/09/14 14:44:33;;;;;;;5.28;1.13;;;;;;;;;;5068900;28;20016;-76
2022/09/14 14:46:59;;;;;;;6.43;1.30;;;;;;;;;;5068624;28;20061;-76
2022/09/14 14:49:25;;;;;;;5.38;0.88;;;;;;;;;;5067786;28;20037;-77
2022/09/14 14:51:52;;;;;;;5.15;1.20;;;;;;;;;;5066938;28;20036;-78
2022/09/14 14:54:18;;;;;;;4.95;0.90;;;;;;;;;;5068311;28;20032;-77
2022/09/14 14:56:46;;;;;;;4.95;1.00;;;;;;;;;;5067324;28;20452;-75